Tiempo atmosférico en la estación meteorológica de Telde, Centro Forestal Doramas, Las Palmas (344 m.)



Fecha
DESCASC
Temp. máxima en grados centígrados (hora)
DESCASC
Temp. mínima en grados centígrados (hora)
DESCASC
Temp. media en grados centígrados
DESCASC
Racha de viento máxima en m/sg (hora)
DESCASC
Velocidad máxima media en intervalos de 10 minutos(hora)
DESCASC
Precipitaciones diarias en mm
DESCASC
Precipitaciones de 00:00 a 06:00 en mm
DESCASC
Precipitaciones de 06:00 a 12:00 en mm
DESCASC
Precipitaciones de 12:00 a 18:00 en mm
DESCASC
Precipitaciones de 18:00 a 24:00 en mm
DESCASC
13-01-2021 16.5 (15:00) 12.5 (04:30) 14.5 8.61 (14:20) 4.72 (13:00) 1.4 1.2 0.2 0 0
12-01-2021 15.3 (16:00) 10.8 (05:20) 13.1 8.33 (17:40) 3.89 (04:30) 5 0.6 2.6 1.6 0.2
11-01-2021 14.9 (16:00) 11.3 (01:30) 13.1 11.67 (11:10) 6.67 (11:10) 5.2 2.6 0 1.8 0.8
10-01-2021 16.4 (15:40) 11.4 (01:40) 13.9 15.83 (13:40) 8.89 (15:00) 8.4 2.2 1.6 0.2 4.4
09-01-2021 15 (14:20) 10.4 (00:00) 12.7 14.44 (14:40) 7.5 (14:40) 7.6 3.4 1.2 2 1
08-01-2021 19.5 (00:50) 11.9 (00:00) 15.7 17.5 (04:10) 8.06 (01:30) 5.6 0 0 2.6 3
07-01-2021 22.8 (14:20) 16.2 (00:00) 19.5 20 (18:40) 10 (18:50) 14.8 0 5.2 1.6 8
06-01-2021 22 (17:10) 15.1 (00:00) 18.6 9.72 (09:50) 5.56 (09:50) 1.4 0 0.4 1 0
05-01-2021 21.7 (14:20) 14.3 (00:00) 18 6.39 (12:50) 3.61 (12:00) 0 0 0 0 0
04-01-2021 19.2 (12:10) 12.6 (00:00) 15.9 6.39 (07:30) 3.06 (07:50) 0 0 0 0 0
03-01-2021 16 (12:40) 13.1 (00:00) 14.6 5 (13:20) 2.78 (13:00) 0 0 0 0 0
02-01-2021 16.5 (16:00) 13 (00:00) 14.8 6.67 (02:30) 4.44 (02:20) 0 0 0 0 0
01-01-2021 16.1 (16:20) 13.5 (00:00) 14.8 8.61 (20:40) 5.28 (01:10) 0 0 0 0 0
31-12-2020 17.1 (12:10) 12 (00:00) 14.6 8.33 (13:20) 4.44 (22:30) 0 0 0 0 0
30-12-2020 19 (12:10) 12.2 (00:00) 15.6 7.78 (14:00) 3.89 (03:00) 0.8 0 0 0 0.8
29-12-2020 17.6 (13:10) 12.2 (00:00) 14.9 6.11 (12:40) 4.17 (06:20) 0 0 0 0 0
28-12-2020 22.3 (13:30) 13.4 (00:00) 17.8 6.11 (15:10) 3.89 (01:50) 0 0 0 0 0
27-12-2020 21.2 (14:10) 12.7 (00:00) 17 6.11 (13:50) 3.61 (14:00) 0 0 0 0 0
26-12-2020 21.7 (12:20) 12.8 (00:00) 17.3 8.61 (13:20) 5 (14:40) 0 0 0 0 0
25-12-2020 22 (14:30) 13.3 (00:00) 17.7 8.06 (10:30) 3.89 (10:10) 0 0 0 0 0
24-12-2020 19.1 (13:20) 14.4 (00:00) 16.8 11.67 (12:20) 5.83 (10:20) 0 0 0 0 0
23-12-2020 19.7 (14:20) 13 (00:00) 16.4 10.28 (10:20) 5 (10:20) 0 0 0 0 0
22-12-2020 20.6 (16:20) 13.5 (00:00) 17.1 9.17 (14:00) 5.83 (13:50) 0 0 0 0 0
21-12-2020 18.7 (13:30) 14.4 (00:00) 16.6 6.39 (12:10) 3.06 (08:10) 4 4 0 0 0
20-12-2020 19.1 (15:20) 12.6 (00:00) 15.9 6.11 (03:10) 3.89 (01:20) 0 0 0 0 0
19-12-2020 18.5 (12:40) 13.1 (00:00) 15.8 8.06 (15:00) 4.17 (18:00) 0 0 0 0 0
18-12-2020 18.5 (13:10) 14.1 (00:00) 16.3 9.17 (14:30) 5 (09:30) 0 0 0 0 0

Gráficas

Temp. máximas Temp. mínimas Temp. medias Precipitaciones Rachas de viento máximas Velocidades máximas media en intervalos de 10 minutos

Datos horarios

Fecha y hora oficial Temperatura (ºC) Velocidad del viento (km/h) Dirección del viento Racha (km/h) Dirección de racha Precipitación (mm) Presión (hPa) Tendencia (hPa) Humedad (%)
2021-01-16 23:00:00 14.2 8 Noroeste 16 Oeste 0 -- -- 70
2021-01-16 22:00:00 14.4 6 Noroeste 22 Oeste 0 -- -- 71
2021-01-16 21:00:00 14.1 7 Norte 20 Nordeste 0 -- -- 73
2021-01-16 20:00:00 14.4 8 Norte 20 Noroeste 0 -- -- 81
2021-01-16 19:00:00 14.5 6 Noroeste 17 Nordeste 0 -- -- 85
2021-01-16 18:00:00 15.3 8 Norte 20 Norte 0 -- -- 80
2021-01-16 17:00:00 16.5 9 Nordeste 20 Norte 0 -- -- 69
2021-01-16 16:00:00 16.3 11 Nordeste 23 Nordeste 0 -- -- 69
2021-01-16 15:00:00 15.9 12 Nordeste 26 Nordeste 0 -- -- 73
2021-01-16 14:00:00 16.7 13 Nordeste 34 Noroeste 0 -- -- 69
2021-01-16 13:00:00 17 13 Norte 27 Noroeste 0 -- -- 61
2021-01-16 12:00:00 16.5 10 Nordeste 26 Nordeste 0 -- -- 65
2021-01-16 11:00:00 16.6 11 Norte 24 Este 0 -- -- 62
2021-01-16 10:00:00 15.1 9 Noroeste 22 Oeste 0 -- -- 66
2021-01-16 09:00:00 13.9 15 Oeste 23 Oeste 0 -- -- 68
2021-01-16 08:00:00 13.6 8 Noroeste 18 Noroeste 0 -- -- 69
2021-01-16 07:00:00 13.8 8 Oeste 23 Noroeste 0 -- -- 71
2021-01-16 06:00:00 13.3 10 Oeste 22 Oeste 0 -- -- 71
2021-01-16 05:00:00 12.9 11 Oeste 22 Oeste 0 -- -- 69
2021-01-16 04:00:00 13 9 Oeste 18 Oeste 0 -- -- 70
2021-01-16 03:00:00 13.4 7 Noroeste 17 Norte 0 -- -- 72
2021-01-16 02:00:00 13.8 8 Noroeste 24 Oeste 0 -- -- 67
2021-01-16 01:00:00 13.6 15 Oeste 28 Oeste 0 -- -- 67
2021-01-16 00:00:00 13.6 8 Noroeste 22 Norte 0 -- -- 67
2021-01-15 23:00:00 13.7 6 Norte 27 Noroeste 0 -- -- 69
2021-01-15 22:00:00 14 12 Noroeste 28 Oeste 0 -- -- 70
2021-01-15 21:00:00 13.7 18 Oeste 27 Oeste 0 -- -- 67
2021-01-15 20:00:00 13.8 11 Oeste 24 Noroeste 0 -- -- 66
2021-01-15 19:00:00 13.9 12 Noroeste 25 Noroeste 0 -- -- 67
2021-01-15 18:00:00 13.9 13 Noroeste 24 Norte 0 -- -- 78
2021-01-15 17:00:00 14.9 13 Norte 28 Norte 0 -- -- 65
2021-01-15 16:00:00 14.7 13 Noroeste 23 Norte 0 -- -- 68
2021-01-15 15:00:00 14.3 11 Noroeste 25 Nordeste 0 -- -- 74
2021-01-15 14:00:00 15.9 10 Norte 24 Norte 0 -- -- 63
2021-01-15 13:00:00 14.5 10 Norte 25 Nordeste 0 -- -- 67
2021-01-15 12:00:00 14.3 8 Noroeste 23 Oeste 0 -- -- 69
2021-01-15 11:00:00 13.9 8 Noroeste 20 Oeste 0 -- -- 70
2021-01-15 10:00:00 13.7 10 Noroeste 23 Norte 0 -- -- 66
2021-01-15 09:00:00 13.4 8 Noroeste 19 Noroeste 0 -- -- 70
2021-01-15 08:00:00 13.3 6 Noroeste 22 Noroeste 0 -- -- 69
2021-01-15 07:00:00 13.5 9 Noroeste 25 Oeste 0 -- -- 70
2021-01-15 06:00:00 13.3 15 Oeste 24 Oeste 0 -- -- 67
2021-01-15 05:00:00 13.1 6 Noroeste 19 Noroeste 0 -- -- 67
2021-01-15 04:00:00 13.3 11 Noroeste 22 Noroeste 0 -- -- 65
2021-01-15 03:00:00 13.4 11 Noroeste 24 Noroeste 0 -- -- 65
2021-01-15 02:00:00 13.5 8 Noroeste 22 Noroeste 0 -- -- 75
2021-01-15 01:00:00 13.5 8 Noroeste 21 Noroeste 0 -- -- 74
2021-01-15 00:00:00 13 9 Oeste 19 Oeste 0 -- -- 73
2021-01-14 23:00:00 12.4 15 Oeste 24 Oeste 0 -- -- 69
2021-01-14 22:00:00 13 6 Noroeste 15 Oeste 0 -- -- 68
2021-01-14 21:00:00 13.8 9 Norte 18 Nordeste 0 -- -- 66
2021-01-14 20:00:00 13.8 9 Norte 20 Norte 0 -- -- 74
2021-01-14 19:00:00 13.9 10 Norte 20 Norte 0 -- -- 73
2021-01-14 18:00:00 14 8 Norte 19 Noroeste 0 -- -- 73
2021-01-14 17:00:00 14.2 8 Norte 21 Norte 0 -- -- 72
2021-01-14 16:00:00 14.4 8 Nordeste 18 Nordeste 0 -- -- 73
2021-01-14 15:00:00 14.4 8 Norte 22 Nordeste 0 -- -- 74
2021-01-14 14:00:00 14.1 13 Este 24 Este 0 -- -- 76
2021-01-14 13:00:00 14.6 11 Este 24 Este 0 -- -- 68
2021-01-14 12:00:00 14.8 9 Nordeste 24 Nordeste 0 -- -- 70
2021-01-14 11:00:00 14.8 10 Este 24 Nordeste 0 -- -- 74
2021-01-14 10:00:00 15.4 11 Este 22 Este 0 -- -- 70
2021-01-14 09:00:00 13.4 3 Noroeste 11 Oeste 0 -- -- 79
2021-01-14 08:00:00 12.5 4 Oeste 10 Oeste 0 -- -- 83
2021-01-14 07:00:00 12.3 6 Oeste 13 Oeste 0 -- -- 83
2021-01-14 06:00:00 11.9 7 Oeste 14 Oeste 0 -- -- 85
2021-01-14 05:00:00 12 5 Oeste 12 Oeste 0 -- -- 85
2021-01-14 04:00:00 12.2 7 Oeste 13 Oeste 0 -- -- 85
2021-01-14 03:00:00 12 8 Oeste 10 Oeste 0 -- -- 87
2021-01-14 02:00:00 12.9 5 Oeste 11 Oeste 0 -- -- 85
2021-01-14 01:00:00 13.1 7 Oeste 13 Oeste 0 -- -- 83
2021-01-14 00:00:00 13.1 9 Oeste 15 Oeste 0 -- -- 81
2021-01-13 23:00:00 13.1 7 Oeste 11 Oeste 0 -- -- 80
2021-01-13 22:00:00 13.4 4 Oeste 10 Norte 0 -- -- 78
2021-01-13 21:00:00 13.6 5 Noroeste 12 Oeste 0 -- -- 76
2021-01-13 20:00:00 13.1 9 Oeste 16 Noroeste 0 -- -- 76
2021-01-13 19:00:00 13.6 8 Oeste 15 Oeste 0 -- -- 74
2021-01-13 18:00:00 14.3 5 Noroeste 18 Noroeste 0 -- -- 72
2021-01-13 17:00:00 15.1 10 Norte 22 Nordeste 0 -- -- 68
2021-01-13 16:00:00 15.1 12 Nordeste 23 Este 0 -- -- 67
2021-01-13 15:00:00 16.5 13 Norte 31 Norte 0 -- -- 64
2021-01-13 14:00:00 15.9 12 Nordeste 28 Nordeste 0 -- -- 68
2021-01-13 13:00:00 15.3 17 Norte 30 Este 0 -- -- 70
2021-01-13 12:00:00 15 13 Nordeste 29 Este 0 -- -- 75
2021-01-13 11:00:00 14.7 13 Nordeste 27 Nordeste 0 -- -- 75
2021-01-13 10:00:00 13.5 12 Nordeste 26 Este 0 -- -- 81
2021-01-13 09:00:00 13.3 6 Norte 27 Nordeste 0.2 -- -- 82
2021-01-13 08:00:00 13.2 10 Norte 21 Nordeste 0 -- -- 83
2021-01-13 07:00:00 13 8 Norte 19 Norte 0 -- -- 86
2021-01-13 06:00:00 12.6 4 Noroeste 12 Oeste 0 -- -- 89
2021-01-13 05:00:00 12.6 6 Norte 18 Norte 0.2 -- -- 89
2021-01-13 04:00:00 12.7 4 Oeste 13 Noroeste 0 -- -- 86
2021-01-13 03:00:00 12.7 4 Noroeste 16 Norte 0.2 -- -- 86
2021-01-13 02:00:00 12.9 6 Noroeste 17 Noroeste 0.2 -- -- 86
2021-01-13 01:00:00 13.2 6 Noroeste 18 Noroeste 0.6 -- -- 85
2021-01-13 00:00:00 12.7 10 Oeste 15 Oeste 0 -- -- 82
2021-01-12 23:00:00 12.9 6 Noroeste 14 Noroeste 0 -- -- 80
2021-01-12 22:00:00 12.7 8 Oeste 17 Oeste 0 -- -- 84
2021-01-12 21:00:00 12.6 8 Oeste 15 Oeste 0 -- -- 82
2021-01-12 20:00:00 12.3 10 Oeste 19 Noroeste 0 -- -- 86
2021-01-12 19:00:00 12.4 5 Oeste 12 Noroeste 0.2 -- -- 86
2021-01-12 18:00:00 12.5 5 Norte 30 Nordeste 0.4 -- -- 85
2021-01-12 17:00:00 14.3 10 Noroeste 22 Noroeste 0 -- -- 68
2021-01-12 16:00:00 15.3 10 Noroeste 23 Noroeste 0 -- -- 65
2021-01-12 15:00:00 14.9 8 Noroeste 18 Noroeste 0 -- -- 70
2021-01-12 14:00:00 13.3 10 Oeste 19 Oeste 0 -- -- 83
2021-01-12 13:00:00 12.5 4 Nordeste 20 Norte 1.2 -- -- 91
2021-01-12 12:00:00 14 8 Norte 15 Norte 0.4 -- -- 79
2021-01-12 11:00:00 14.4 5 Noroeste 14 Oeste 0 -- -- 73
2021-01-12 10:00:00 12.2 9 Oeste 21 Oeste 0 -- -- 83
2021-01-12 09:00:00 11.2 14 Oeste 19 Oeste 0.2 -- -- 92
2021-01-12 08:00:00 11.1 5 Norte 18 Norte 1 -- -- 90
2021-01-12 07:00:00 11.4 5 Noroeste 22 Noroeste 1 -- -- 87
2021-01-12 06:00:00 11.1 4 Oeste 17 Oeste 0.4 -- -- 86
2021-01-12 05:00:00 11 6 Oeste 21 Oeste 0.2 -- -- 87
2021-01-12 04:00:00 11.7 10 Oeste 15 Oeste 0 -- -- 81
2021-01-12 03:00:00 11.4 9 Oeste 18 Oeste 0 -- -- 83
2021-01-12 02:00:00 11.8 9 Oeste 14 Oeste 0 -- -- 82
2021-01-12 01:00:00 11.8 5 Oeste 13 Oeste 0 -- -- 81
2021-01-12 00:00:00 12.5 6 Oeste 13 Oeste 0 -- -- 76
2021-01-11 23:00:00 12.7 5 Noroeste 12 Oeste 0 -- -- 77
2021-01-11 22:00:00 12.7 7 Noroeste 19 Oeste 0.2 -- -- 78
2021-01-11 21:00:00 12.6 11 Oeste 21 Oeste 0 -- -- 78
2021-01-11 20:00:00 12.4 7 Noroeste 17 Oeste 0 -- -- 79
2021-01-11 19:00:00 11.9 3 Noroeste 22 Noroeste 0.6 -- -- 89
2021-01-11 18:00:00 12 12 Norte 30 Noroeste 0.8 -- -- 87
2021-01-11 17:00:00 13.9 13 Noroeste 30 Noroeste 0 -- -- 72
2021-01-11 16:00:00 14.9 11 Norte 30 Noroeste 0 -- -- 68
2021-01-11 15:00:00 13.5 10 Noroeste 36 Norte 0.2 -- -- 80
2021-01-11 14:00:00 14 15 Noroeste 35 Noroeste 0 -- -- 75
2021-01-11 13:00:00 13.2 12 Noroeste 31 Noroeste 0.8 -- -- 82
2021-01-11 12:00:00 14.4 16 Noroeste 42 Noroeste 0 -- -- 70
2021-01-11 11:00:00 14.3 20 Noroeste 40 Noroeste 0 -- -- 72
2021-01-11 10:00:00 13.8 14 Noroeste 33 Noroeste 0 -- -- 64
2021-01-11 09:00:00 12.7 14 Oeste 37 Noroeste 0 -- -- 71
2021-01-11 08:00:00 11.4 15 Oeste 22 Oeste 0 -- -- 73
2021-01-11 07:00:00 11.5 9 Oeste 18 Oeste 0 -- -- 76
2021-01-11 06:00:00 11.8 7 Oeste 22 Noroeste 0 -- -- 73
2021-01-11 05:00:00 12.1 11 Noroeste 25 Oeste 0 -- -- 72
2021-01-11 04:00:00 11.9 9 Noroeste 24 Oeste 0 -- -- 79
2021-01-11 03:00:00 11.6 12 Oeste 25 Noroeste 0.2 -- -- 85
2021-01-11 02:00:00 11.3 13 Noroeste 34 Noroeste 1.2 -- -- 89
2021-01-11 01:00:00 11.6 12 Noroeste 29 Noroeste 1.2 -- -- 89
2021-01-11 00:00:00 11.6 11 Noroeste 36 Noroeste 2.6 -- -- 88
2021-01-10 23:00:00 11.8 11 Noroeste 40 Noroeste 1.4 -- -- 89
2021-01-10 22:00:00 12.8 12 Noroeste 34 Noroeste 0.4 -- -- 81
2021-01-10 21:00:00 13.7 17 Noroeste 41 Noroeste 0 -- -- 68
2021-01-10 20:00:00 13.8 19 Noroeste 39 Noroeste 0 -- -- 68
2021-01-10 19:00:00 13.7 15 Noroeste 47 Noroeste 0 -- -- 66
2021-01-10 18:00:00 13.9 19 Noroeste 45 Noroeste 0.2 -- -- 72
2021-01-10 17:00:00 15 17 Noroeste 54 Noroeste 0 -- -- 65
2021-01-10 16:00:00 16.3 14 Noroeste 45 Oeste 0 -- -- 59
2021-01-10 15:00:00 15.7 32 Oeste 53 Oeste 0 -- -- 56
2021-01-10 14:00:00 15.8 21 Noroeste 57 Noroeste 0 -- -- 64
2021-01-10 13:00:00 15.3 18 Noroeste 42 Oeste 0 -- -- 65
2021-01-10 12:00:00 14 22 Noroeste 46 Noroeste 0 -- -- 77
2021-01-10 11:00:00 14.6 19 Noroeste 36 Noroeste 0.2 -- -- 67
2021-01-10 10:00:00 13.8 12 Noroeste 35 Noroeste 0.2 -- -- 76
2021-01-10 09:00:00 13 18 Noroeste 41 Noroeste 0.4 -- -- 77
2021-01-10 08:00:00 12.2 16 Noroeste 36 Oeste 0 -- -- 83
2021-01-10 07:00:00 11.9 19 Oeste 37 Oeste 0.8 -- -- 77
2021-01-10 06:00:00 11.7 17 Noroeste 33 Oeste 0.8 -- -- 84
2021-01-10 05:00:00 11.8 17 Noroeste 49 Noroeste 0.8 -- -- 83
2021-01-10 04:00:00 12.3 13 Oeste 31 Oeste 0 -- -- 76
2021-01-10 03:00:00 11.7 12 Oeste 33 Oeste 0 -- -- 77
2021-01-10 02:00:00 11.5 8 Noroeste 24 Oeste 0.2 -- -- 82
2021-01-10 01:00:00 11.8 12 Oeste 21 Oeste 0.4 -- -- 79
2021-01-10 00:00:00 11.7 14 Oeste 27 Oeste 0.4 -- -- 82
2021-01-09 23:00:00 11.8 8 Oeste 40 Noroeste 0.2 -- -- 78
2021-01-09 22:00:00 12.2 11 Oeste 36 Noroeste 0 -- -- 69
2021-01-09 21:00:00 12 16 Noroeste 32 Noroeste 0.2 -- -- 75
2021-01-09 20:00:00 12 16 Noroeste 37 Norte 0 -- -- 75
2021-01-09 19:00:00 11.7 15 Noroeste 43 Noroeste 0.2 -- -- 74
2021-01-09 18:00:00 12.7 18 Noroeste 40 Norte 0 -- -- 71
2021-01-09 17:00:00 13.4 16 Noroeste 35 Noroeste 0 -- -- 69
2021-01-09 16:00:00 13.6 18 Noroeste 39 Noroeste 0.2 -- -- 74
2021-01-09 15:00:00 12 15 Noroeste 52 Noroeste 1.6 -- -- 81
2021-01-09 14:00:00 14.1 14 Noroeste 39 Noroeste 0 -- -- 66
2021-01-09 13:00:00 13.5 20 Norte 47 Norte 0.2 -- -- 69
2021-01-09 12:00:00 13.6 16 Noroeste 42 Noroeste 0.6 -- -- 72
2021-01-09 11:00:00 13.9 18 Noroeste 39 Oeste 0.2 -- -- 66
2021-01-09 10:00:00 13 22 Oeste 46 Noroeste 0.2 -- -- 70
2021-01-09 09:00:00 12.4 17 Noroeste 44 Oeste 0.2 -- -- 74
2021-01-09 08:00:00 12 17 Oeste 47 Oeste 0 -- -- 68
2021-01-09 07:00:00 11.7 19 Oeste 32 Oeste 0 -- -- 71
2021-01-09 06:00:00 11.3 19 Oeste 40 Oeste 0.2 -- -- 73
2021-01-09 05:00:00 11.4 17 Oeste 33 Oeste 0.2 -- -- 76
2021-01-09 04:00:00 10.9 15 Oeste 27 Oeste 2.8 -- -- 84
2021-01-09 03:00:00 11.8 7 Noroeste 19 Noroeste 0.2 -- -- 80
2021-01-09 02:00:00 12.3 6 Oeste 32 Oeste 0 -- -- 67
2021-01-09 01:00:00 12.3 18 Oeste 36 Oeste 0 -- -- 69
2021-01-09 00:00:00 12.1 17 Oeste 35 Noroeste 0.2 -- -- 81
2021-01-08 23:00:00 12.2 12 Oeste 32 Oeste 1.2 -- -- 83
2021-01-08 22:00:00 12.1 11 Oeste 28 Noroeste 0.8 -- -- 82
2021-01-08 21:00:00 12.5 11 Oeste 31 Oeste 0.2 -- -- 80
2021-01-08 20:00:00 12.8 14 Noroeste 33 Oeste 0.4 -- -- 75
2021-01-08 19:00:00 12.9 17 Oeste 31 Oeste 0.2 -- -- 78
2021-01-08 18:00:00 12.8 14 Noroeste 33 Noroeste 1 -- -- 85
2021-01-08 17:00:00 13.6 14 Oeste 31 Oeste 0.2 -- -- 81
2021-01-08 16:00:00 14 13 Noroeste 33 Oeste 0.8 -- -- 80
2021-01-08 15:00:00 15.1 13 Noroeste 44 Noroeste 0.2 -- -- 80
2021-01-08 14:00:00 14.7 22 Noroeste 44 Noroeste 0.4 -- -- 80
2021-01-08 13:00:00 15.5 15 Noroeste 53 Noroeste 0 -- -- 77
2021-01-08 12:00:00 15.8 23 Noroeste 51 Oeste 0 -- -- 73
2021-01-08 11:00:00 17.5 14 Noroeste 34 Noroeste 0 -- -- 69
2021-01-08 10:00:00 16.6 14 Noroeste 33 Noroeste 0 -- -- 69
2021-01-08 09:00:00 16.4 13 Noroeste 26 Noroeste 0 -- -- 75
2021-01-08 08:00:00 15.5 15 Noroeste 25 Noroeste 0 -- -- 75
2021-01-08 07:00:00 15.9 10 Norte 24 Norte 0 -- -- 75
2021-01-08 06:00:00 16 5 Noroeste 21 Sudeste 0 -- -- 69
2021-01-08 05:00:00 18.2 10 Sudoeste 63 Oeste 0 -- -- 53
2021-01-08 04:00:00 18.7 25 Oeste 48 Oeste 0 -- -- 50
2021-01-08 03:00:00 18.4 14 Oeste 40 Sudoeste 0 -- -- 59
2021-01-08 02:00:00 19.3 19 Oeste 51 Oeste 0 -- -- 56
2021-01-08 01:00:00 19.3 24 Oeste 55 Oeste 0 -- -- 56
2021-01-08 00:00:00 19.2 13 Oeste 51 Oeste 0 -- -- 63
2021-01-07 23:00:00 18.4 19 Oeste 39 Oeste 0.2 -- -- 70
2021-01-07 22:00:00 16.4 6 Sudoeste 51 Sudoeste 6.4 -- -- 88
2021-01-07 21:00:00 18.6 24 Sudoeste 54 Oeste 1.2 -- -- 70
2021-01-07 20:00:00 19.9 23 Oeste 64 Oeste 0.2 -- -- 64
2021-01-07 19:00:00 20.3 31 Oeste 72 Oeste 0 -- -- 62
2021-01-07 18:00:00 21 32 Oeste 65 Oeste 0 -- -- 59
2021-01-07 17:00:00 20.3 29 Oeste 61 Sudoeste 0 -- -- 63
2021-01-07 16:00:00 20.6 29 Oeste 60 Oeste 0.6 -- -- 64
2021-01-07 15:00:00 20.5 21 Oeste 60 Oeste 0.2 -- -- 67
2021-01-07 14:00:00 22.5 10 Oeste 51 Oeste 0.2 -- -- 59
2021-01-07 13:00:00 20.3 5 Oeste 17 Este 0.6 -- -- 82
2021-01-07 12:00:00 19.5 10 Sudoeste 36 Sudoeste 2.8 -- -- 79
2021-01-07 11:00:00 19.9 4 Noroeste 45 Sudoeste 2 -- -- 79
2021-01-07 10:00:00 21.2 15 Sudoeste 41 Oeste 0 -- -- 64
2021-01-07 09:00:00 20 15 Oeste 47 Oeste 0 -- -- 63
2021-01-07 08:00:00 17.6 4 Este 32 Oeste 0.4 -- -- 79
2021-01-07 07:00:00 17.6 5 Noroeste 15 Nordeste 0 -- -- 73
2021-01-07 06:00:00 17.3 6 Este 17 Sudoeste 0 -- -- 77
2021-01-07 05:00:00 17.2 9 Oeste 20 Oeste 0 -- -- 78
2021-01-07 04:00:00 17.2 5 Sudoeste 21 Oeste 0 -- -- 77
2021-01-07 03:00:00 17.6 4 Noroeste 17 Oeste 0 -- -- 76
2021-01-07 02:00:00 17.6 4 Oeste 17 Oeste 0 -- -- 76
2021-01-07 01:00:00 17.6 8 Oeste 14 Sudoeste 0 -- -- 73
2021-01-07 00:00:00 17.3 5 Oeste 17 Sudoeste 0 -- -- 73
2021-01-06 23:00:00 17.1 6 Oeste 15 Oeste 0 -- -- 73
2021-01-06 22:00:00 17.1 10 Sudoeste 18 Oeste 0 -- -- 73
2021-01-06 21:00:00 17.7 3 Sudoeste 11 Sudeste 0 -- -- 78
2021-01-06 20:00:00 18.8 5 Norte 15 Nordeste 0 -- -- 75
2021-01-06 19:00:00 20 6 Nordeste 16 Norte 0 -- -- 75
2021-01-06 18:00:00 21.2 3 Sudeste 14 Nordeste 0 -- -- 72
2021-01-06 17:00:00 21.8 7 Este 18 Este 0 -- -- 75
2021-01-06 16:00:00 20.3 8 Norte 19 Oeste 0 -- -- 80
2021-01-06 15:00:00 19.6 9 Oeste 20 Oeste 0.2 -- -- 84
2021-01-06 14:00:00 19.7 8 Noroeste 15 Sudoeste 0.8 -- -- 84
2021-01-06 13:00:00 20.8 6 Noroeste 15 Sudoeste 0 -- -- 80
2021-01-06 12:00:00 21.7 8 Nordeste 22 Sudeste 0 -- -- 72
2021-01-06 11:00:00 19.5 10 Noroeste 30 Sudeste 0 -- -- 82
2021-01-06 10:00:00 18.7 10 Este 35 Este 0 -- -- 83
2021-01-06 09:00:00 17 8 Nordeste 17 Oeste 0.4 -- -- 89
2021-01-06 08:00:00 16.6 5 Sudoeste 18 Oeste 0 -- -- 88
2021-01-06 07:00:00 16.7 12 Oeste 25 Oeste 0 -- -- 88
2021-01-06 06:00:00 16.6 6 Nordeste 24 Sudeste 0 -- -- 86
2021-01-06 05:00:00 17 12 Sudeste 25 Este 0 -- -- 86
2021-01-06 04:00:00 15.9 4 Sudoeste 10 Sudoeste 0 -- -- 78
2021-01-06 03:00:00 16 6 Oeste 12 Oeste 0 -- -- 79
2021-01-06 02:00:00 15.8 4 Oeste 13 Oeste 0 -- -- 80
2021-01-06 01:00:00 15.6 4 Oeste 17 Sudoeste 0 -- -- 81
2021-01-06 00:00:00 15.1 9 Oeste 12 Sudoeste 0 -- -- 81
2021-01-05 23:00:00 15.3 10 Sudoeste 16 Oeste 0 -- -- 81
2021-01-05 22:00:00 15.6 7 Sudoeste 12 Oeste 0 -- -- 81
2021-01-05 21:00:00 16.1 6 Oeste 14 Sudeste 0 -- -- 80
2021-01-05 20:00:00 16.7 3 Sur 12 Sudoeste 0 -- -- 78
2021-01-05 19:00:00 17.4 6 Sudoeste 9 Sudoeste 0 -- -- 76
2021-01-05 18:00:00 18.9 8 Este 13 Este 0 -- -- 73
2021-01-05 17:00:00 19.8 8 Este 17 Este 0 -- -- 67
2021-01-05 16:00:00 20.9 7 Nordeste 19 Este 0 -- -- 61
2021-01-05 15:00:00 21.3 10 Este 19 Norte 0 -- -- 58
2021-01-05 14:00:00 21.5 9 Nordeste 18 Este 0 -- -- 57
2021-01-05 13:00:00 21.1 12 Este 23 Este 0 -- -- 59
2021-01-05 12:00:00 21.2 13 Este 22 Nordeste 0 -- -- 59
2021-01-05 11:00:00 21.3 7 Este 12 Sudeste 0 -- -- 57
2021-01-05 10:00:00 19.6 0 Calma 11 Sudoeste 0 -- -- 60
2021-01-05 09:00:00 16 6 Sudoeste 12 Oeste 0 -- -- 69
2021-01-05 08:00:00 14.9 8 Oeste 17 Oeste 0 -- -- 69
2021-01-05 07:00:00 14.6 10 Oeste 17 Oeste 0 -- -- 68
2021-01-05 06:00:00 14.8 11 Oeste 17 Oeste 0 -- -- 68
2021-01-05 05:00:00 14.3 11 Oeste 17 Oeste 0 -- -- 75
2021-01-05 04:00:00 14.6 8 Sudoeste 14 Oeste 0 -- -- 78
2021-01-05 03:00:00 14.6 8 Oeste 17 Oeste 0 -- -- 82
2021-01-05 02:00:00 15.5 9 Sudoeste 17 Oeste 0 -- -- 78
2021-01-05 01:00:00 15.9 9 Sudoeste 15 Oeste 0 -- -- 77
2021-01-05 00:00:00 16 4 Sur 13 Noroeste 0 -- -- 76
2021-01-04 23:00:00 15.1 6 Oeste 14 Oeste 0 -- -- 79
2021-01-04 22:00:00 15.8 7 Oeste 13 Oeste 0 -- -- 76
2021-01-04 21:00:00 16.5 8 Oeste 17 Norte 0 -- -- 75
2021-01-04 20:00:00 15.7 3 Sur 15 Noroeste 0 -- -- 81
2021-01-04 19:00:00 16 2 Sur 10 Oeste 0 -- -- 80
2021-01-04 18:00:00 16.6 4 Sur 12 Nordeste 0 -- -- 78
2021-01-04 17:00:00 17.1 5 Este 17 Noroeste 0 -- -- 76
2021-01-04 16:00:00 17.7 7 Sudoeste 15 Oeste 0 -- -- 74
2021-01-04 15:00:00 18.3 4 Sudoeste 15 Oeste 0 -- -- 72
2021-01-04 14:00:00 18.9 9 Norte 18 Noroeste 0 -- -- 69
2021-01-04 13:00:00 19.2 6 Norte 13 Noroeste 0 -- -- 68
2021-01-04 12:00:00 19.1 6 Noroeste 15 Oeste 0 -- -- 66
2021-01-04 11:00:00 17.6 4 Oeste 23 Sudeste 0 -- -- 71
2021-01-04 10:00:00 15.7 3 Oeste 9 Oeste 0 -- -- 74
2021-01-04 09:00:00 14.4 2 Noroeste 12 Oeste 0 -- -- 78
2021-01-04 08:00:00 14.4 8 Sudoeste 23 Sur 0 -- -- 75
2021-01-04 07:00:00 12.9 3 Oeste 14 Sur 0 -- -- 80
2021-01-04 06:00:00 14 10 Sur 18 Sur 0 -- -- 80
2021-01-04 05:00:00 12.8 7 Oeste 13 Sudoeste 0 -- -- 79
2021-01-04 04:00:00 12.6 5 Oeste 10 Oeste 0 -- -- 80
2021-01-04 03:00:00 13.1 6 Oeste 14 Sudoeste 0 -- -- 79
2021-01-04 02:00:00 14.2 5 Sur 18 Sudeste 0 -- -- 75
2021-01-04 01:00:00 13.4 6 Sur 16 Sur 0 -- -- 78
2021-01-04 00:00:00 13.1 5 Oeste 9 Sudoeste 0 -- -- 79
2021-01-03 23:00:00 13.7 0 Calma 7 Sudoeste 0 -- -- 77
2021-01-03 22:00:00 14.2 4 Sudoeste 5 Sur 0 -- -- 74
2021-01-03 21:00:00 14.2 0 Calma 7 Oeste 0 -- -- 74
2021-01-03 20:00:00 14.6 4 Oeste 7 Sudeste 0 -- -- 72
2021-01-03 19:00:00 14.9 3 Sudeste 9 Este 0 -- -- 71
2021-01-03 18:00:00 15.1 6 Sudeste 12 Este 0 -- -- 71
2021-01-03 17:00:00 15.6 4 Nordeste 14 Sudeste 0 -- -- 70
2021-01-03 16:00:00 15.6 5 Este 13 Este 0 -- -- 71
2021-01-03 15:00:00 15.5 5 Nordeste 14 Este 0 -- -- 70
2021-01-03 14:00:00 15.5 4 Nordeste 18 Este 0 -- -- 72
2021-01-03 13:00:00 15.4 10 Este 17 Este 0 -- -- 75
2021-01-03 12:00:00 15.8 5 Este 10 Este 0 -- -- 70
2021-01-03 11:00:00 15.7 5 Este 9 Este 0 -- -- 71
2021-01-03 10:00:00 15.2 0 Calma 5 Oeste 0 -- -- 72
2021-01-03 09:00:00 13.8 3 Oeste 8 Sudoeste 0 -- -- 73
2021-01-03 08:00:00 13.6 5 Sudoeste 13 Oeste 0 -- -- 71
2021-01-03 07:00:00 13.2 8 Oeste 12 Oeste 0 -- -- 75
2021-01-03 06:00:00 13.1 6 Oeste 12 Oeste 0 -- -- 80
2021-01-03 05:00:00 13.5 4 Oeste 8 Oeste 0 -- -- 78
2021-01-03 04:00:00 13.9 4 Oeste 10 Oeste 0 -- -- 77
2021-01-03 03:00:00 14 6 Oeste 9 Oeste 0 -- -- 77
2021-01-03 02:00:00 13.9 4 Oeste 9 Oeste 0 -- -- 78
2021-01-03 01:00:00 13.9 5 Oeste 14 Oeste 0 -- -- 76
2021-01-03 00:00:00 13.8 8 Oeste 12 Oeste 0 -- -- 78
2021-01-02 23:00:00 13.9 4 Oeste 17 Oeste 0 -- -- 78
2021-01-02 22:00:00 13.5 6 Oeste 12 Oeste 0 -- -- 75
2021-01-02 21:00:00 14.3 4 Oeste 9 Noroeste 0 -- -- 76
2021-01-02 20:00:00 14.4 6 Oeste 9 Oeste 0 -- -- 77
2021-01-02 19:00:00 14.5 7 Norte 23 Nordeste 0 -- -- 76
2021-01-02 18:00:00 14.8 7 Norte 18 Nordeste 0 -- -- 78
2021-01-02 17:00:00 15.7 8 Norte 18 Norte 0 -- -- 75
2021-01-02 16:00:00 16.5 6 Noroeste 20 Noroeste 0 -- -- 62
2021-01-02 15:00:00 15.9 12 Norte 19 Noroeste 0 -- -- 63
2021-01-02 14:00:00 15.7 8 Noroeste 15 Oeste 0 -- -- 66
2021-01-02 13:00:00 15.7 8 Noroeste 17 Noroeste 0 -- -- 63